Аэропорт: Сургут. Сургут

ICAO: USRR

METAR:
2018/11/21 18:30
USRR 211830Z 19005MPS 160V220 6000 -SHSN SCT008 BKN023CB M02/M03 Q0992 R25/490535 TEMPO 3100 -SHSN RMK OBST OBSC QFE739
METAR:
2018/11/21 18:24
TAF TAF USRR 211655Z 2118/2218 20005G10MPS 3100 -SHSN SCT007 BKN020CB 
      TEMPO 2118/2203 0900 +SHSN VV003